AirNav   Pilot Hours Calculator
 
 542 users online  

82A Marion County Airport
Buena Vista, Georgia, USA

GOING TO BUENA VISTA?


FAA INFORMATION EFFECTIVE 07 OCTOBER 2021

Location

FAA Identifier: 82A
Lat/Long: 32-16-58.1000N 084-30-13.3000W
32-16.968333N 084-30.221667W
32.2828056,-84.5036944
(estimated)
Elevation: 682 ft. / 207.9 m (surveyed)
Variation: 02W (1985)
From city: 3 miles SE of BUENA VISTA, GA
Time zone: UTC -4 (UTC -5 during Standard Time)
Zip code: 31803

Airport Operations

Airport use: Open to the public
Activation date: 01/1975
Control tower: no
ARTCC: ATLANTA CENTER
FSS: MACON FLIGHT SERVICE STATION
NOTAMs facility: MCN (NOTAM-D service available)
Attendance: UNATNDD
Wind indicator: yes
Segmented circle: yes
Lights: ACTVT MIRL RWY 14/32 -CTAF.

Airport Communications

CTAF: 122.9
WX AWOS-3 at ACJ (19 nm SE): 128.375 (229-928-0934)

Nearby radio navigation aids

VOR radial/distance  VOR name  Freq  Var
LSFr099/25.0LAWSON VOR/DME111.4002W
CSGr126/32.8COLUMBUS VORTAC117.1001E
EUFr056/37.6EUFAULA VORTAC109.2002E
PZDr346/39.2PECAN VOR/DME116.1002W

 
NDB name  Hdg/Dist  Freq  Var  ID
LINDBERGH292/21.124204WLKG .-.. -.- --.
MONTEZUMA263/25.742604WIZS .. --.. ...
LAWSON093/26.433502WAWS .- .-- ...
CONEY304/36.840006WOHY --- .... -.--
PINE MOUNTAIN154/38.427203WPIM .--. .. --

Airport Services

Parking: tiedowns
Airframe service: NONE
Powerplant service: NONE
Bottled oxygen: NONE
Bulk oxygen: NONE

Runway Information

Runway 14/32

Dimensions: 3200 x 75 ft. / 975 x 23 m
Surface: asphalt, in excellent condition
Weight bearing capacity: 
Single wheel: 14.0
Runway edge lights: medium intensity
RUNWAY 14  RUNWAY 32
Latitude: 32-17.160500N32-16.777000N
Longitude: 084-30.435167W084-30.008167W
Traffic pattern: leftleft
Markings: basic, in good conditionbasic, in good condition
Obstructions: 34 ft. trees, 1050 ft. from runway, 200 ft. left of centerline, 25:1 slope to clear38 ft. trees, 1492 ft. from runway, 210 ft. right of centerline, 34:1 slope to clear

Airport Ownership and Management from official FAA records

Ownership: Publicly-owned
Owner: MARION COUNTY
PO BOX 481
BUENA VISTA, GA 31803
Phone 229-649-2603
Manager: GEORGE NEAL
100 EAST BURKHALTER AVE, PO BOX 481
BUENA VISTA, GA 31803
Phone 229-649-2603

Airport Operational Statistics

Aircraft operations: avg 23/week *
50% transient general aviation
50% local general aviation
* for 12-month period ending 31 December 2020

Additional Remarks

PAEW ON & INVOF RWY.
FOR CD CTC ATLANTA APCH AT 678-364-6132, WHEN APCH CLSD CTC ATLANTA ARTCC AT 770-210-7692.

Instrument Procedures

There are no published instrument procedures at 82A.

Some nearby airports with instrument procedures:

KACJ - Jimmy Carter Regional Airport (19 nm SE)
6A1 - Butler Municipal Airport (22 nm NE)
KLSF - Lawson Army Airfield (Fort Benning) (25 nm W)
53A - Dr. C P Savage Sr. Airport (25 nm E)
KCSG - Columbus Airport (26 nm NW)
 
Loc | Ops | Rwys | IFR | FBO | Links
Com | Nav | Svcs | Stats | Notes
Area around 82A (Marion County Airport)
 
Road maps at: MapQuest Bing Google
 
Aerial photo
WARNING: Photo may not be current or correct
Aerial photo of 82A (Marion County Airport)
Do you have a better or more recent aerial photo of Marion County Airport that you would like to share? If so, please send us your photo.

 
Sectional chart

 
Airport distance calculator
Flying to Marion County Airport? Find the distance to fly.

From to 82A

Sunrise and sunset
Times for 19-Oct-2021
 Local
(UTC-4)
 Zulu
(UTC)
Morning civil twilight07:2111:21
Sunrise07:4611:46
Sunset19:0023:00
Evening civil twilight19:2523:25

Current date and time
Zulu (UTC)  19-Oct-2021 05:30:42
Local (UTC-4)  19-Oct-2021 01:30:42
 
METAR
KACJ 
19nm SE 
190515Z AUTO 00000KT 11/10 A3021 RMK AO2 PWINO
K6A1 
21nm NE 
190515Z AUTO 00000KT 10SM CLR 11/07 A3020 RMK AO2 T01060072
KLSF 
25nm W 
190521Z AUTO 00000KT 4SM BR CLR 08/05 A3017 RMK AO2 VIS 5/8 RWY15 SLP221 $
KCSG 
27nm NW 
190451Z AUTO 00000KT 10SM CLR 12/09 A3019 RMK AO2 SLP220 T01170094 402330061
KEUF 
37nm SW 
190513Z AUTO 00000KT 2 1/2SM BR CLR 09/08 A3019 RMK AO2 T00940083
TAF
KLSF 
25nm W 
190240Z 1902/2003 00000KT 3200 BR SKC QNH3016INS TEMPO 1902/1912 0800 FG BECMG 1912/1913 12006KT 9999 NSW FEW200 QNH3018INS TX25/1920Z TN05/1911Z LAST NO AMDS AFT 1903 NEXT 1913
KCSG 
27nm NW 
181944Z 1820/1918 10004KT P6SM FEW250 FM182300 VRB03KT P6SM FEW250
NOTAMs
Click for the latest NOTAMs
NOTAMs are issued by the DoD/FAA and will open in a separate window not controlled by AirNav.

 

 
 

Would you like to see your business listed on this page?

 If your business provides an interesting product or service to pilots, flight crews, aircraft, or users of the Marion County Airport, you should consider listing it here.  To start the listing process, click on the button below
 
Add a business
 

Other Pages about Marion County Airport

Update a link
 
Copyright © AirNav, LLC. All rights reserved. Privacy Policy  Contact